sensor_id;sensor_type;location;lat;lon;timestamp;P1;durP1;ratioP1;P2;durP2;ratioP2
28627;SDS011;15815;46.760;19.604;2023-07-02T00:01:00;709.67;;;641.90;;
28627;SDS011;15815;46.760;19.604;2023-07-02T00:03:26;681.85;;;617.08;;
28627;SDS011;15815;46.760;19.604;2023-07-02T00:05:51;710.88;;;641.55;;
28627;SDS011;15815;46.760;19.604;2023-07-02T00:08:17;723.47;;;653.22;;
28627;SDS011;15815;46.760;19.604;2023-07-02T00:10:43;707.38;;;638.85;;
28627;SDS011;15815;46.760;19.604;2023-07-02T00:13:09;737.50;;;665.20;;
28627;SDS011;15815;46.760;19.604;2023-07-02T00:15:35;726.75;;;656.78;;
28627;SDS011;15815;46.760;19.604;2023-07-02T00:18:00;749.30;;;676.35;;
28627;SDS011;15815;46.760;19.604;2023-07-02T00:20:26;720.33;;;651.22;;
28627;SDS011;15815;46.760;19.604;2023-07-02T00:22:51;719.75;;;649.80;;
28627;SDS011;15815;46.760;19.604;2023-07-02T00:25:17;759.60;;;683.63;;
28627;SDS011;15815;46.760;19.604;2023-07-02T00:27:43;712.17;;;643.88;;
28627;SDS011;15815;46.760;19.604;2023-07-02T00:30:08;707.83;;;639.42;;
28627;SDS011;15815;46.760;19.604;2023-07-02T00:32:34;691.60;;;625.90;;
28627;SDS011;15815;46.760;19.604;2023-07-02T00:35:00;701.28;;;633.38;;
28627;SDS011;15815;46.760;19.604;2023-07-02T00:37:25;732.47;;;661.42;;
28627;SDS011;15815;46.760;19.604;2023-07-02T00:39:51;692.00;;;625.90;;
28627;SDS011;15815;46.760;19.604;2023-07-02T00:42:16;720.42;;;650.72;;
28627;SDS011;15815;46.760;19.604;2023-07-02T00:44:42;726.67;;;654.95;;
28627;SDS011;15815;46.760;19.604;2023-07-02T00:47:08;751.47;;;677.45;;
28627;SDS011;15815;46.760;19.604;2023-07-02T00:49:33;715.65;;;645.53;;
28627;SDS011;15815;46.760;19.604;2023-07-02T00:51:59;703.22;;;635.90;;
28627;SDS011;15815;46.760;19.604;2023-07-02T00:54:27;696.60;;;628.95;;
28627;SDS011;15815;46.760;19.604;2023-07-02T00:56:53;718.78;;;648.63;;
28627;SDS011;15815;46.760;19.604;2023-07-02T00:59:19;667.17;;;604.40;;
28627;SDS011;15815;46.760;19.604;2023-07-02T01:01:47;661.10;;;599.80;;
28627;SDS011;15815;46.760;19.604;2023-07-02T01:04:12;712.42;;;641.45;;
28627;SDS011;15815;46.760;19.604;2023-07-02T01:06:38;721.83;;;650.30;;
28627;SDS011;15815;46.760;19.604;2023-07-02T01:09:07;704.35;;;636.47;;
28627;SDS011;15815;46.760;19.604;2023-07-02T01:11:53;758.38;;;682.45;;
28627;SDS011;15815;46.760;19.604;2023-07-02T01:14:38;772.80;;;693.60;;
28627;SDS011;15815;46.760;19.604;2023-07-02T01:17:06;781.08;;;701.03;;
28627;SDS011;15815;46.760;19.604;2023-07-02T01:19:45;701.40;;;634.60;;
28627;SDS011;15815;46.760;19.604;2023-07-02T01:22:13;801.15;;;719.88;;
28627;SDS011;15815;46.760;19.604;2023-07-02T01:24:39;763.95;;;688.40;;
28627;SDS011;15815;46.760;19.604;2023-07-02T01:27:04;721.63;;;648.40;;
28627;SDS011;15815;46.760;19.604;2023-07-02T01:29:30;736.00;;;662.50;;
28627;SDS011;15815;46.760;19.604;2023-07-02T01:31:56;700.83;;;631.65;;
28627;SDS011;15815;46.760;19.604;2023-07-02T01:34:22;675.05;;;611.80;;
28627;SDS011;15815;46.760;19.604;2023-07-02T01:36:48;765.78;;;687.58;;
28627;SDS011;15815;46.760;19.604;2023-07-02T01:39:13;754.85;;;678.75;;
28627;SDS011;15815;46.760;19.604;2023-07-02T01:41:49;712.95;;;643.25;;
28627;SDS011;15815;46.760;19.604;2023-07-02T01:44:15;759.13;;;683.13;;
28627;SDS011;15815;46.760;19.604;2023-07-02T01:46:40;677.33;;;612.00;;
28627;SDS011;15815;46.760;19.604;2023-07-02T01:49:06;723.47;;;652.17;;
28627;SDS011;15815;46.760;19.604;2023-07-02T01:51:32;750.65;;;676.22;;
28627;SDS011;15815;46.760;19.604;2023-07-02T01:53:58;745.25;;;669.75;;
28627;SDS011;15815;46.760;19.604;2023-07-02T01:56:24;736.45;;;662.63;;
28627;SDS011;15815;46.760;19.604;2023-07-02T01:58:49;720.67;;;649.38;;
28627;SDS011;15815;46.760;19.604;2023-07-02T02:01:15;736.05;;;662.72;;
28627;SDS011;15815;46.760;19.604;2023-07-02T02:03:40;762.83;;;685.55;;
28627;SDS011;15815;46.760;19.604;2023-07-02T02:06:06;724.58;;;654.30;;
28627;SDS011;15815;46.760;19.604;2023-07-02T02:08:31;720.85;;;651.63;;
28627;SDS011;15815;46.760;19.604;2023-07-02T02:10:57;759.45;;;682.28;;
28627;SDS011;15815;46.760;19.604;2023-07-02T02:13:22;825.05;;;739.75;;
28627;SDS011;15815;46.760;19.604;2023-07-02T02:15:48;716.63;;;645.95;;
28627;SDS011;15815;46.760;19.604;2023-07-02T02:18:14;790.65;;;709.50;;
28627;SDS011;15815;46.760;19.604;2023-07-02T02:20:40;817.50;;;732.00;;
28627;SDS011;15815;46.760;19.604;2023-07-02T02:23:05;802.40;;;707.85;;
28627;SDS011;15815;46.760;19.604;2023-07-02T02:25:31;906.35;;;722.63;;
28627;SDS011;15815;46.760;19.604;2023-07-02T02:27:57;889.80;;;708.22;;
28627;SDS011;15815;46.760;19.604;2023-07-02T02:30:22;951.40;;;741.20;;
28627;SDS011;15815;46.760;19.604;2023-07-02T02:32:48;886.10;;;718.40;;
28627;SDS011;15815;46.760;19.604;2023-07-02T02:35:13;1219.97;;;872.05;;
28627;SDS011;15815;46.760;19.604;2023-07-02T02:37:42;1450.43;;;952.45;;
28627;SDS011;15815;46.760;19.604;2023-07-02T02:40:07;1031.97;;;800.05;;
28627;SDS011;15815;46.760;19.604;2023-07-02T02:42:35;1509.25;;;974.47;;
28627;SDS011;15815;46.760;19.604;2023-07-02T02:45:00;1474.03;;;984.67;;
28627;SDS011;15815;46.760;19.604;2023-07-02T02:47:26;1451.20;;;972.05;;
28627;SDS011;15815;46.760;19.604;2023-07-02T02:49:51;1567.00;;;999.90;;
28627;SDS011;15815;46.760;19.604;2023-07-02T02:52:17;1478.05;;;979.40;;
28627;SDS011;15815;46.760;19.604;2023-07-02T02:54:43;1507.30;;;984.95;;
28627;SDS011;15815;46.760;19.604;2023-07-02T02:57:08;1515.22;;;992.95;;
28627;SDS011;15815;46.760;19.604;2023-07-02T02:59:34;1456.90;;;983.97;;
28627;SDS011;15815;46.760;19.604;2023-07-02T03:01:59;1550.68;;;992.65;;
28627;SDS011;15815;46.760;19.604;2023-07-02T03:04:26;1516.75;;;992.97;;
28627;SDS011;15815;46.760;19.604;2023-07-02T03:06:54;1552.43;;;998.20;;
28627;SDS011;15815;46.760;19.604;2023-07-02T03:09:20;1552.32;;;999.78;;
28627;SDS011;15815;46.760;19.604;2023-07-02T03:11:46;1568.28;;;999.90;;
28627;SDS011;15815;46.760;19.604;2023-07-02T03:14:12;1343.95;;;959.72;;
28627;SDS011;15815;46.760;19.604;2023-07-02T03:16:37;1519.90;;;996.85;;
28627;SDS011;15815;46.760;19.604;2023-07-02T03:19:03;1524.38;;;998.15;;
28627;SDS011;15815;46.760;19.604;2023-07-02T03:21:28;1574.80;;;999.90;;
28627;SDS011;15815;46.760;19.604;2023-07-02T03:23:54;1537.57;;;995.92;;
28627;SDS011;15815;46.760;19.604;2023-07-02T03:26:22;1537.05;;;999.90;;
28627;SDS011;15815;46.760;19.604;2023-07-02T03:28:49;1529.57;;;996.22;;
28627;SDS011;15815;46.760;19.604;2023-07-02T03:31:14;1474.53;;;997.38;;
28627;SDS011;15815;46.760;19.604;2023-07-02T03:33:40;1544.80;;;999.75;;
28627;SDS011;15815;46.760;19.604;2023-07-02T03:36:06;1551.22;;;991.55;;
28627;SDS011;15815;46.760;19.604;2023-07-02T03:38:32;1586.95;;;999.90;;
28627;SDS011;15815;46.760;19.604;2023-07-02T03:40:57;1580.80;;;999.90;;
28627;SDS011;15815;46.760;19.604;2023-07-02T03:43:25;1491.63;;;991.75;;
28627;SDS011;15815;46.760;19.604;2023-07-02T03:45:52;1556.50;;;999.90;;
28627;SDS011;15815;46.760;19.604;2023-07-02T03:48:17;1593.70;;;999.90;;
28627;SDS011;15815;46.760;19.604;2023-07-02T03:50:43;1581.90;;;999.90;;
28627;SDS011;15815;46.760;19.604;2023-07-02T03:53:08;1546.32;;;999.38;;
28627;SDS011;15815;46.760;19.604;2023-07-02T03:55:34;1337.85;;;961.58;;
28627;SDS011;15815;46.760;19.604;2023-07-02T03:58:00;1340.78;;;966.13;;
28627;SDS011;15815;46.760;19.604;2023-07-02T04:00:25;1494.30;;;994.15;;
28627;SDS011;15815;46.760;19.604;2023-07-02T04:02:51;1472.43;;;985.95;;
28627;SDS011;15815;46.760;19.604;2023-07-02T04:05:16;1412.18;;;980.92;;
28627;SDS011;15815;46.760;19.604;2023-07-02T04:07:42;1490.13;;;982.70;;
28627;SDS011;15815;46.760;19.604;2023-07-02T04:10:07;1482.03;;;988.53;;
28627;SDS011;15815;46.760;19.604;2023-07-02T04:12:33;1353.38;;;962.25;;
28627;SDS011;15815;46.760;19.604;2023-07-02T04:14:59;1330.85;;;954.22;;
28627;SDS011;15815;46.760;19.604;2023-07-02T04:17:24;1363.80;;;960.30;;
28627;SDS011;15815;46.760;19.604;2023-07-02T04:19:50;1493.40;;;994.72;;
28627;SDS011;15815;46.760;19.604;2023-07-02T04:22:15;1361.35;;;960.85;;
28627;SDS011;15815;46.760;19.604;2023-07-02T04:24:41;1480.15;;;985.97;;
28627;SDS011;15815;46.760;19.604;2023-07-02T04:27:06;1306.32;;;942.40;;
28627;SDS011;15815;46.760;19.604;2023-07-02T04:29:32;1452.25;;;989.53;;
28627;SDS011;15815;46.760;19.604;2023-07-02T04:31:57;1489.25;;;993.80;;
28627;SDS011;15815;46.760;19.604;2023-07-02T04:34:23;1428.95;;;969.95;;
28627;SDS011;15815;46.760;19.604;2023-07-02T04:36:48;1459.25;;;958.50;;
28627;SDS011;15815;46.760;19.604;2023-07-02T04:39:14;1441.38;;;967.85;;
28627;SDS011;15815;46.760;19.604;2023-07-02T04:41:39;1242.05;;;892.65;;
28627;SDS011;15815;46.760;19.604;2023-07-02T04:44:05;1333.55;;;917.42;;
28627;SDS011;15815;46.760;19.604;2023-07-02T04:46:30;1431.38;;;955.45;;
28627;SDS011;15815;46.760;19.604;2023-07-02T04:48:56;1210.20;;;859.63;;
28627;SDS011;15815;46.760;19.604;2023-07-02T04:51:22;1191.15;;;858.08;;
28627;SDS011;15815;46.760;19.604;2023-07-02T04:53:47;1095.55;;;804.25;;
28627;SDS011;15815;46.760;19.604;2023-07-02T04:56:13;943.08;;;728.08;;
28627;SDS011;15815;46.760;19.604;2023-07-02T04:58:38;1265.25;;;893.45;;
28627;SDS011;15815;46.760;19.604;2023-07-02T05:01:04;987.97;;;752.28;;
28627;SDS011;15815;46.760;19.604;2023-07-02T05:03:30;741.35;;;615.92;;
28627;SDS011;15815;46.760;19.604;2023-07-02T05:05:55;901.00;;;715.70;;
28627;SDS011;15815;46.760;19.604;2023-07-02T05:08:28;654.60;;;571.60;;
28627;SDS011;15815;46.760;19.604;2023-07-02T05:10:53;533.15;;;479.83;;
28627;SDS011;15815;46.760;19.604;2023-07-02T05:13:19;525.33;;;475.17;;
28627;SDS011;15815;46.760;19.604;2023-07-02T05:15:45;548.50;;;493.50;;
28627;SDS011;15815;46.760;19.604;2023-07-02T05:18:10;669.55;;;556.22;;
28627;SDS011;15815;46.760;19.604;2023-07-02T05:20:36;474.85;;;426.88;;
28627;SDS011;15815;46.760;19.604;2023-07-02T05:23:01;404.75;;;369.75;;
28627;SDS011;15815;46.760;19.604;2023-07-02T05:25:27;409.23;;;372.88;;
28627;SDS011;15815;46.760;19.604;2023-07-02T05:27:52;375.83;;;340.33;;
28627;SDS011;15815;46.760;19.604;2023-07-02T05:30:18;364.13;;;330.40;;
28627;SDS011;15815;46.760;19.604;2023-07-02T05:32:44;417.92;;;375.63;;
28627;SDS011;15815;46.760;19.604;2023-07-02T05:35:10;913.10;;;674.00;;
28627;SDS011;15815;46.760;19.604;2023-07-02T05:37:35;388.30;;;353.30;;
28627;SDS011;15815;46.760;19.604;2023-07-02T05:40:01;389.70;;;355.50;;
28627;SDS011;15815;46.760;19.604;2023-07-02T05:42:27;452.85;;;410.92;;
28627;SDS011;15815;46.760;19.604;2023-07-02T05:44:52;500.50;;;452.55;;
28627;SDS011;15815;46.760;19.604;2023-07-02T05:47:18;847.92;;;641.58;;
28627;SDS011;15815;46.760;19.604;2023-07-02T05:49:44;933.55;;;683.97;;
28627;SDS011;15815;46.760;19.604;2023-07-02T05:52:09;1064.57;;;733.35;;
28627;SDS011;15815;46.760;19.604;2023-07-02T05:54:38;1200.43;;;790.33;;
28627;SDS011;15815;46.760;19.604;2023-07-02T05:57:05;1581.95;;;931.08;;
28627;SDS011;15815;46.760;19.604;2023-07-02T05:59:31;1670.57;;;985.10;;
28627;SDS011;15815;46.760;19.604;2023-07-02T06:01:56;1595.95;;;960.42;;
28627;SDS011;15815;46.760;19.604;2023-07-02T06:04:22;1360.85;;;913.35;;
28627;SDS011;15815;46.760;19.604;2023-07-02T06:06:47;1523.97;;;952.40;;
28627;SDS011;15815;46.760;19.604;2023-07-02T06:09:16;1402.13;;;925.03;;
28627;SDS011;15815;46.760;19.604;2023-07-02T06:11:41;1272.85;;;898.22;;
28627;SDS011;15815;46.760;19.604;2023-07-02T06:14:07;934.40;;;824.10;;
28627;SDS011;15815;46.760;19.604;2023-07-02T06:16:32;815.30;;;725.95;;
28627;SDS011;15815;46.760;19.604;2023-07-02T06:18:58;1017.95;;;853.95;;
28627;SDS011;15815;46.760;19.604;2023-07-02T06:21:23;1089.78;;;902.45;;
28627;SDS011;15815;46.760;19.604;2023-07-02T06:23:49;1120.28;;;905.65;;
28627;SDS011;15815;46.760;19.604;2023-07-02T06:26:14;1105.68;;;904.85;;
28627;SDS011;15815;46.760;19.604;2023-07-02T06:28:40;1102.32;;;889.63;;
28627;SDS011;15815;46.760;19.604;2023-07-02T06:31:05;976.03;;;833.55;;
28627;SDS011;15815;46.760;19.604;2023-07-02T06:33:31;929.85;;;824.85;;
28627;SDS011;15815;46.760;19.604;2023-07-02T06:35:58;927.72;;;825.55;;
28627;SDS011;15815;46.760;19.604;2023-07-02T06:38:24;961.42;;;850.67;;
28627;SDS011;15815;46.760;19.604;2023-07-02T06:40:49;942.13;;;839.95;;
28627;SDS011;15815;46.760;19.604;2023-07-02T06:43:15;916.67;;;804.78;;
28627;SDS011;15815;46.760;19.604;2023-07-02T06:45:40;967.40;;;834.75;;
28627;SDS011;15815;46.760;19.604;2023-07-02T06:48:06;969.05;;;842.33;;
28627;SDS011;15815;46.760;19.604;2023-07-02T06:50:50;945.63;;;818.75;;
28627;SDS011;15815;46.760;19.604;2023-07-02T06:53:15;916.63;;;800.75;;
28627;SDS011;15815;46.760;19.604;2023-07-02T06:55:41;924.90;;;822.75;;
28627;SDS011;15815;46.760;19.604;2023-07-02T06:58:09;956.78;;;833.00;;
28627;SDS011;15815;46.760;19.604;2023-07-02T07:00:35;903.08;;;803.83;;
28627;SDS011;15815;46.760;19.604;2023-07-02T07:03:03;928.50;;;814.33;;
28627;SDS011;15815;46.760;19.604;2023-07-02T07:05:30;923.22;;;808.83;;
28627;SDS011;15815;46.760;19.604;2023-07-02T07:07:56;935.70;;;828.50;;
28627;SDS011;15815;46.760;19.604;2023-07-02T07:10:22;875.08;;;782.25;;
28627;SDS011;15815;46.760;19.604;2023-07-02T07:12:47;860.10;;;767.88;;
28627;SDS011;15815;46.760;19.604;2023-07-02T07:15:13;887.90;;;794.72;;
28627;SDS011;15815;46.760;19.604;2023-07-02T07:17:38;877.88;;;784.10;;
28627;SDS011;15815;46.760;19.604;2023-07-02T07:20:04;878.72;;;785.53;;
28627;SDS011;15815;46.760;19.604;2023-07-02T07:22:30;907.17;;;807.22;;
28627;SDS011;15815;46.760;19.604;2023-07-02T07:24:56;903.92;;;802.17;;
28627;SDS011;15815;46.760;19.604;2023-07-02T07:27:21;940.97;;;819.38;;
28627;SDS011;15815;46.760;19.604;2023-07-02T07:29:47;889.22;;;777.83;;
28627;SDS011;15815;46.760;19.604;2023-07-02T07:32:13;920.83;;;801.45;;
28627;SDS011;15815;46.760;19.604;2023-07-02T07:34:38;980.75;;;826.42;;
28627;SDS011;15815;46.760;19.604;2023-07-02T07:37:05;917.35;;;790.25;;
28627;SDS011;15815;46.760;19.604;2023-07-02T07:39:30;927.28;;;802.15;;
28627;SDS011;15815;46.760;19.604;2023-07-02T07:41:56;938.50;;;811.38;;
28627;SDS011;15815;46.760;19.604;2023-07-02T07:44:21;961.22;;;811.53;;
28627;SDS011;15815;46.760;19.604;2023-07-02T07:46:47;863.30;;;766.70;;
28627;SDS011;15815;46.760;19.604;2023-07-02T07:49:13;967.10;;;821.05;;
28627;SDS011;15815;46.760;19.604;2023-07-02T07:51:38;948.28;;;792.67;;
28627;SDS011;15815;46.760;19.604;2023-07-02T07:54:04;935.95;;;794.88;;
28627;SDS011;15815;46.760;19.604;2023-07-02T07:58:59;989.47;;;829.22;;
28627;SDS011;15815;46.760;19.604;2023-07-02T08:01:26;1000.03;;;821.33;;
28627;SDS011;15815;46.760;19.604;2023-07-02T08:03:51;1004.88;;;842.13;;
28627;SDS011;15815;46.760;19.604;2023-07-02T08:06:17;1046.28;;;846.10;;
28627;SDS011;15815;46.760;19.604;2023-07-02T08:08:42;1110.70;;;853.70;;
28627;SDS011;15815;46.760;19.604;2023-07-02T08:11:08;1105.22;;;854.80;;
28627;SDS011;15815;46.760;19.604;2023-07-02T08:13:34;1082.72;;;864.00;;
28627;SDS011;15815;46.760;19.604;2023-07-02T08:16:00;1132.43;;;853.72;;
28627;SDS011;15815;46.760;19.604;2023-07-02T08:18:25;1151.40;;;893.45;;
28627;SDS011;15815;46.760;19.604;2023-07-02T08:20:51;1251.38;;;903.08;;
28627;SDS011;15815;46.760;19.604;2023-07-02T08:23:17;1178.68;;;892.88;;
28627;SDS011;15815;46.760;19.604;2023-07-02T08:25:42;1258.10;;;910.90;;
28627;SDS011;15815;46.760;19.604;2023-07-02T08:28:08;1137.07;;;866.30;;
28627;SDS011;15815;46.760;19.604;2023-07-02T08:30:33;1214.85;;;873.08;;
28627;SDS011;15815;46.760;19.604;2023-07-02T08:32:59;1348.72;;;930.88;;
28627;SDS011;15815;46.760;19.604;2023-07-02T08:35:27;1184.72;;;874.80;;
28627;SDS011;15815;46.760;19.604;2023-07-02T08:37:54;1179.72;;;893.97;;
28627;SDS011;15815;46.760;19.604;2023-07-02T08:40:19;1214.95;;;886.13;;
28627;SDS011;15815;46.760;19.604;2023-07-02T08:42:45;1203.68;;;890.85;;
28627;SDS011;15815;46.760;19.604;2023-07-02T08:45:12;1234.28;;;920.17;;
28627;SDS011;15815;46.760;19.604;2023-07-02T08:47:39;1288.43;;;922.42;;
28627;SDS011;15815;46.760;19.604;2023-07-02T08:50:05;1171.43;;;891.40;;
28627;SDS011;15815;46.760;19.604;2023-07-02T08:52:31;1189.20;;;883.05;;
28627;SDS011;15815;46.760;19.604;2023-07-02T08:54:57;1204.50;;;877.25;;
28627;SDS011;15815;46.760;19.604;2023-07-02T08:57:22;1215.10;;;900.53;;
28627;SDS011;15815;46.760;19.604;2023-07-02T08:59:48;1245.47;;;910.55;;
28627;SDS011;15815;46.760;19.604;2023-07-02T09:02:15;1237.82;;;888.50;;
28627;SDS011;15815;46.760;19.604;2023-07-02T09:04:40;1189.13;;;892.17;;
28627;SDS011;15815;46.760;19.604;2023-07-02T09:07:06;1189.57;;;870.35;;
28627;SDS011;15815;46.760;19.604;2023-07-02T09:09:47;1233.88;;;892.72;;
28627;SDS011;15815;46.760;19.604;2023-07-02T09:12:27;1203.38;;;883.83;;
28627;SDS011;15815;46.760;19.604;2023-07-02T09:17:32;1188.97;;;892.05;;
28627;SDS011;15815;46.760;19.604;2023-07-02T09:20:00;1174.30;;;891.40;;
28627;SDS011;15815;46.760;19.604;2023-07-02T09:22:26;1189.07;;;883.58;;
28627;SDS011;15815;46.760;19.604;2023-07-02T09:24:53;1172.53;;;873.53;;
28627;SDS011;15815;46.760;19.604;2023-07-02T09:27:20;1121.50;;;855.65;;
28627;SDS011;15815;46.760;19.604;2023-07-02T09:29:49;1151.25;;;852.03;;
28627;SDS011;15815;46.760;19.604;2023-07-02T09:34:49;1164.88;;;881.55;;
28627;SDS011;15815;46.760;19.604;2023-07-02T09:37:14;1221.30;;;911.10;;
28627;SDS011;15815;46.760;19.604;2023-07-02T09:39:40;1205.32;;;896.30;;
28627;SDS011;15815;46.760;19.604;2023-07-02T09:42:06;1095.45;;;853.33;;
28627;SDS011;15815;46.760;19.604;2023-07-02T09:44:33;1140.95;;;863.65;;
28627;SDS011;15815;46.760;19.604;2023-07-02T09:47:03;1091.35;;;855.45;;
28627;SDS011;15815;46.760;19.604;2023-07-02T09:49:33;1057.70;;;844.22;;
28627;SDS011;15815;46.760;19.604;2023-07-02T09:52:07;1064.53;;;855.75;;
28627;SDS011;15815;46.760;19.604;2023-07-02T09:54:34;1027.15;;;847.45;;
28627;SDS011;15815;46.760;19.604;2023-07-02T09:57:00;1058.97;;;858.20;;
28627;SDS011;15815;46.760;19.604;2023-07-02T09:59:27;1022.03;;;841.05;;
28627;SDS011;15815;46.760;19.604;2023-07-02T10:01:53;1063.20;;;838.80;;
28627;SDS011;15815;46.760;19.604;2023-07-02T10:04:19;1107.35;;;861.47;;
28627;SDS011;15815;46.760;19.604;2023-07-02T10:06:52;1117.68;;;877.40;;
28627;SDS011;15815;46.760;19.604;2023-07-02T10:09:40;1158.07;;;879.50;;
28627;SDS011;15815;46.760;19.604;2023-07-02T10:12:16;1132.32;;;870.22;;
28627;SDS011;15815;46.760;19.604;2023-07-02T10:14:42;1097.20;;;864.63;;
28627;SDS011;15815;46.760;19.604;2023-07-02T10:17:08;1087.05;;;843.35;;
28627;SDS011;15815;46.760;19.604;2023-07-02T10:19:34;1080.68;;;841.80;;
28627;SDS011;15815;46.760;19.604;2023-07-02T10:22:00;989.60;;;823.15;;
28627;SDS011;15815;46.760;19.604;2023-07-02T10:24:26;1063.60;;;855.15;;
28627;SDS011;15815;46.760;19.604;2023-07-02T10:26:56;832.47;;;671.33;;
28627;SDS011;15815;46.760;19.604;2023-07-02T10:29:28;1034.82;;;814.38;;
28627;SDS011;15815;46.760;19.604;2023-07-02T10:31:55;1012.67;;;829.20;;
28627;SDS011;15815;46.760;19.604;2023-07-02T10:34:31;959.83;;;823.92;;
28627;SDS011;15815;46.760;19.604;2023-07-02T10:37:02;992.90;;;831.83;;
28627;SDS011;15815;46.760;19.604;2023-07-02T10:39:29;875.70;;;698.50;;
28627;SDS011;15815;46.760;19.604;2023-07-02T10:42:05;905.33;;;773.22;;
28627;SDS011;15815;46.760;19.604;2023-07-02T10:44:34;908.78;;;794.97;;
28627;SDS011;15815;46.760;19.604;2023-07-02T10:47:00;826.45;;;710.72;;
28627;SDS011;15815;46.760;19.604;2023-07-02T10:49:32;927.38;;;789.22;;
28627;SDS011;15815;46.760;19.604;2023-07-02T10:51:58;917.63;;;787.42;;
28627;SDS011;15815;46.760;19.604;2023-07-02T10:54:38;849.65;;;737.97;;
28627;SDS011;15815;46.760;19.604;2023-07-02T10:57:13;878.15;;;748.00;;
28627;SDS011;15815;46.760;19.604;2023-07-02T10:59:40;907.58;;;786.70;;
28627;SDS011;15815;46.760;19.604;2023-07-02T11:02:06;843.58;;;751.50;;
28627;SDS011;15815;46.760;19.604;2023-07-02T11:04:33;838.38;;;747.63;;
28627;SDS011;15815;46.760;19.604;2023-07-02T11:07:00;839.95;;;747.00;;
28627;SDS011;15815;46.760;19.604;2023-07-02T11:09:25;825.53;;;733.25;;
28627;SDS011;15815;46.760;19.604;2023-07-02T11:11:52;794.53;;;707.83;;
28627;SDS011;15815;46.760;19.604;2023-07-02T11:14:26;815.65;;;724.83;;
28627;SDS011;15815;46.760;19.604;2023-07-02T11:16:56;781.55;;;698.70;;
28627;SDS011;15815;46.760;19.604;2023-07-02T11:19:28;1012.53;;;761.22;;
28627;SDS011;15815;46.760;19.604;2023-07-02T11:21:55;814.75;;;727.30;;
28627;SDS011;15815;46.760;19.604;2023-07-02T11:24:28;842.20;;;754.45;;
28627;SDS011;15815;46.760;19.604;2023-07-02T11:27:04;791.67;;;707.92;;
28627;SDS011;15815;46.760;19.604;2023-07-02T11:29:30;823.08;;;735.90;;
28627;SDS011;15815;46.760;19.604;2023-07-02T11:32:10;827.95;;;737.15;;
28627;SDS011;15815;46.760;19.604;2023-07-02T11:34:36;775.88;;;692.42;;
28627;SDS011;15815;46.760;19.604;2023-07-02T11:37:05;977.97;;;766.05;;
28627;SDS011;15815;46.760;19.604;2023-07-02T11:39:31;881.95;;;752.83;;
28627;SDS011;15815;46.760;19.604;2023-07-02T11:41:57;788.47;;;703.95;;
28627;SDS011;15815;46.760;19.604;2023-07-02T11:44:23;754.63;;;669.67;;
28627;SDS011;15815;46.760;19.604;2023-07-02T11:46:49;819.58;;;724.42;;
28627;SDS011;15815;46.760;19.604;2023-07-02T11:49:14;808.65;;;688.70;;
28627;SDS011;15815;46.760;19.604;2023-07-02T11:51:41;872.05;;;749.38;;
28627;SDS011;15815;46.760;19.604;2023-07-02T11:54:07;786.88;;;703.88;;
28627;SDS011;15815;46.760;19.604;2023-07-02T11:56:33;797.80;;;713.45;;
28627;SDS011;15815;46.760;19.604;2023-07-02T11:58:59;758.53;;;682.17;;
28627;SDS011;15815;46.760;19.604;2023-07-02T12:01:27;772.13;;;692.90;;
28627;SDS011;15815;46.760;19.604;2023-07-02T12:03:53;734.15;;;659.22;;
28627;SDS011;15815;46.760;19.604;2023-07-02T12:06:18;755.83;;;675.83;;
28627;SDS011;15815;46.760;19.604;2023-07-02T12:08:44;835.78;;;712.53;;
28627;SDS011;15815;46.760;19.604;2023-07-02T12:11:10;765.42;;;686.85;;
28627;SDS011;15815;46.760;19.604;2023-07-02T12:13:38;768.75;;;687.45;;
28627;SDS011;15815;46.760;19.604;2023-07-02T12:16:04;758.08;;;678.55;;
28627;SDS011;15815;46.760;19.604;2023-07-02T12:18:29;788.75;;;704.67;;
28627;SDS011;15815;46.760;19.604;2023-07-02T12:20:55;754.63;;;678.42;;
28627;SDS011;15815;46.760;19.604;2023-07-02T12:23:20;770.83;;;694.08;;
28627;SDS011;15815;46.760;19.604;2023-07-02T12:25:46;777.97;;;698.08;;
28627;SDS011;15815;46.760;19.604;2023-07-02T12:28:12;791.25;;;706.08;;
28627;SDS011;15815;46.760;19.604;2023-07-02T12:30:37;768.20;;;686.90;;
28627;SDS011;15815;46.760;19.604;2023-07-02T12:33:03;743.63;;;667.63;;
28627;SDS011;15815;46.760;19.604;2023-07-02T12:35:28;767.85;;;688.88;;
28627;SDS011;15815;46.760;19.604;2023-07-02T12:37:54;851.22;;;751.72;;
28627;SDS011;15815;46.760;19.604;2023-07-02T12:40:20;782.33;;;700.72;;
28627;SDS011;15815;46.760;19.604;2023-07-02T12:42:45;727.22;;;652.53;;
28627;SDS011;15815;46.760;19.604;2023-07-02T12:45:12;797.15;;;713.85;;
28627;SDS011;15815;46.760;19.604;2023-07-02T12:47:40;792.45;;;712.00;;
28627;SDS011;15815;46.760;19.604;2023-07-02T12:50:06;687.28;;;617.10;;
28627;SDS011;15815;46.760;19.604;2023-07-02T12:52:33;623.75;;;560.00;;
28627;SDS011;15815;46.760;19.604;2023-07-02T12:55:02;672.45;;;602.20;;
28627;SDS011;15815;46.760;19.604;2023-07-02T12:57:28;727.78;;;652.50;;
28627;SDS011;15815;46.760;19.604;2023-07-02T12:59:54;664.97;;;591.65;;
28627;SDS011;15815;46.760;19.604;2023-07-02T13:02:24;742.25;;;661.25;;
28627;SDS011;15815;46.760;19.604;2023-07-02T13:04:50;584.35;;;520.55;;
28627;SDS011;15815;46.760;19.604;2023-07-02T13:07:16;672.95;;;602.88;;
28627;SDS011;15815;46.760;19.604;2023-07-02T13:09:42;635.50;;;563.13;;
28627;SDS011;15815;46.760;19.604;2023-07-02T13:12:08;704.30;;;630.45;;
28627;SDS011;15815;46.760;19.604;2023-07-02T13:14:35;601.13;;;540.63;;
28627;SDS011;15815;46.760;19.604;2023-07-02T13:17:01;741.10;;;666.70;;
28627;SDS011;15815;46.760;19.604;2023-07-02T13:19:26;675.13;;;604.00;;
28627;SDS011;15815;46.760;19.604;2023-07-02T13:21:52;606.72;;;543.53;;
28627;SDS011;15815;46.760;19.604;2023-07-02T13:24:18;598.90;;;536.70;;
28627;SDS011;15815;46.760;19.604;2023-07-02T13:26:44;500.75;;;446.52;;
28627;SDS011;15815;46.760;19.604;2023-07-02T13:29:13;669.92;;;597.63;;
28627;SDS011;15815;46.760;19.604;2023-07-02T13:31:39;476.90;;;413.48;;
28627;SDS011;15815;46.760;19.604;2023-07-02T13:34:05;701.17;;;626.15;;
28627;SDS011;15815;46.760;19.604;2023-07-02T13:36:31;1366.80;;;905.13;;
28627;SDS011;15815;46.760;19.604;2023-07-02T13:38:57;672.08;;;600.47;;
28627;SDS011;15815;46.760;19.604;2023-07-02T13:41:23;799.92;;;717.25;;
28627;SDS011;15815;46.760;19.604;2023-07-02T13:43:49;598.83;;;535.33;;